METAR rapporter

 

EKCH - Copenhagen/Kastr, Denmark
Afstand til vejrstation: SØ 11km
Opdateret: 29/02/2020 00:20
Overskyet
Overskyet
 Vind retning S
Vind: S 13 km/h
Temperatur: 4°C
Kuldeindeks: 1°C
Dugpunkt: 2°C
Fugtighed: 87%
Barometer: 1005 hPa
Skyer: Overskyet
Sigtbarhed: 10 km
Sky detaljer: Overskyet 3353 m
2020/02/28 23:20 EKCH 282320Z AUTO 19007KT 9999 OVC110/// 04/02 Q1005 NOSIG
EKRK - Copenhagen/Roski, Denmark
Afstand til vejrstation: VSV 29km
Opdateret: 29/02/2020 00:20
Overskyet
Overskyet
 Vind retning SSØ
Vind: SSØ 13 km/h
Temperatur: 3°C
Kuldeindeks: -1°C
Dugpunkt: 1°C
Fugtighed: 87%
Barometer: 1004 hPa
Skyer: Overskyet
Sigtbarhed: 10 km
Sky detaljer: Overskyet 3048 m
2020/02/28 23:20 EKRK 282320Z AUTO 16007KT 9999 OVC100/// 03/01 Q1004